createdAt,value
2018-10-05T00:00:12.222Z,14.83
2018-10-05T00:02:40.229Z,12.87
2018-10-05T00:05:08.485Z,13.63
2018-10-05T00:07:36.564Z,12.30
2018-10-05T00:10:04.621Z,10.90
2018-10-05T00:12:32.848Z,11.70
2018-10-05T00:15:01.027Z,10.93
2018-10-05T00:17:29.034Z,9.27
2018-10-05T00:19:57.366Z,12.73
2018-10-05T00:22:25.409Z,9.50
2018-10-05T00:24:53.495Z,12.97
2018-10-05T00:27:21.740Z,9.57
2018-10-05T00:29:49.746Z,9.67
2018-10-05T00:32:17.781Z,10.00
2018-10-05T00:34:45.890Z,7.80
2018-10-05T00:37:14.011Z,9.93
2018-10-05T00:39:42.116Z,9.77
2018-10-05T00:42:10.179Z,12.37
2018-10-05T00:44:38.173Z,11.77
2018-10-05T00:47:06.539Z,10.60
2018-10-05T00:49:34.546Z,9.07
2018-10-05T00:52:02.596Z,11.67
2018-10-05T00:54:30.581Z,9.47
2018-10-05T00:56:58.784Z,8.70
2018-10-05T00:59:26.856Z,8.03
2018-10-05T01:01:55.099Z,14.50
2018-10-05T01:04:23.144Z,10.97
2018-10-05T01:06:51.202Z,12.30
2018-10-05T01:09:19.216Z,9.67
2018-10-05T01:11:47.222Z,12.20
2018-10-05T01:14:16.392Z,11.63
2018-10-05T01:16:44.427Z,14.97
2018-10-05T01:19:12.427Z,12.20
2018-10-05T01:21:40.727Z,15.17
2018-10-05T01:24:08.772Z,11.73
2018-10-05T01:26:36.792Z,12.10
2018-10-05T01:29:04.814Z,10.90
2018-10-05T01:31:32.812Z,9.87
2018-10-05T01:34:00.808Z,13.30
2018-10-05T01:36:28.852Z,13.40
2018-10-05T01:38:56.995Z,16.57
2018-10-05T01:41:24.942Z,13.50
2018-10-05T01:43:52.998Z,15.07
2018-10-05T01:46:20.993Z,16.03
2018-10-05T01:48:49.042Z,13.47
2018-10-05T01:51:26.690Z,14.87
2018-10-05T01:53:54.753Z,15.60
2018-10-05T01:56:22.767Z,12.50
2018-10-05T01:58:50.823Z,15.10
2018-10-05T02:01:18.802Z,15.90
2018-10-05T02:03:46.849Z,16.57
2018-10-05T02:06:14.915Z,13.57
2018-10-05T02:08:43.114Z,11.60
2018-10-05T02:11:11.102Z,12.40
2018-10-05T02:13:39.127Z,11.57
2018-10-05T02:16:07.517Z,13.17
2018-10-05T02:18:35.580Z,11.30
2018-10-05T02:21:03.637Z,11.40
2018-10-05T02:23:31.732Z,13.33
2018-10-05T02:25:59.823Z,13.77
2018-10-05T02:28:27.850Z,14.53
2018-10-05T02:30:55.878Z,15.33
2018-10-05T02:33:23.929Z,15.87
2018-10-05T02:35:51.881Z,13.73
2018-10-05T02:38:20.093Z,12.87
2018-10-05T02:40:48.120Z,11.73
2018-10-05T02:43:16.137Z,12.93
2018-10-05T02:45:44.134Z,13.17
2018-10-05T02:48:12.174Z,13.77
2018-10-05T02:50:40.159Z,11.60
2018-10-05T02:53:08.212Z,13.07
2018-10-05T02:55:36.214Z,13.67
2018-10-05T02:58:04.251Z,15.23
2018-10-05T03:00:43.192Z,13.57
2018-10-05T03:03:11.552Z,13.90
2018-10-05T03:05:39.540Z,12.60
2018-10-05T03:08:07.635Z,18.67
2018-10-05T03:10:35.809Z,17.27
2018-10-05T03:13:03.984Z,15.17
2018-10-05T03:15:32.099Z,16.97
2018-10-05T03:18:00.196Z,12.30
2018-10-05T03:20:28.266Z,15.33
2018-10-05T03:22:56.299Z,14.60
2018-10-05T03:25:24.331Z,17.20
2018-10-05T03:27:52.354Z,14.13
2018-10-05T03:30:20.399Z,16.43
2018-10-05T03:32:48.449Z,15.67
2018-10-05T03:35:16.557Z,14.57
2018-10-05T03:37:44.599Z,15.53
2018-10-05T03:40:12.691Z,16.10
2018-10-05T03:42:40.705Z,18.60
2018-10-05T03:45:09.029Z,19.60
2018-10-05T03:47:37.039Z,17.30
2018-10-05T03:50:05.614Z,16.97
2018-10-05T03:52:33.666Z,19.47
2018-10-05T03:55:01.780Z,14.90
2018-10-05T03:57:29.804Z,17.43
2018-10-05T03:59:57.948Z,20.53
2018-10-05T04:02:25.955Z,18.77
2018-10-05T04:04:54.084Z,20.80
2018-10-05T04:07:22.086Z,18.80
2018-10-05T04:09:50.140Z,16.83
2018-10-05T04:12:18.203Z,17.33
2018-10-05T04:14:46.446Z,16.90
2018-10-05T04:17:14.481Z,16.17
2018-10-05T04:19:42.506Z,18.00
2018-10-05T04:22:10.516Z,17.20
2018-10-05T04:24:38.540Z,17.70
2018-10-05T04:27:06.770Z,16.00
2018-10-05T04:29:34.961Z,17.77
2018-10-05T04:32:03.038Z,18.87
2018-10-05T04:34:31.353Z,10.77
2018-10-05T04:36:59.496Z,13.07
2018-10-05T04:39:27.571Z,15.63
2018-10-05T04:41:55.637Z,17.13
2018-10-05T04:44:23.677Z,17.93
2018-10-05T04:46:51.889Z,18.37
2018-10-05T04:49:20.133Z,20.53
2018-10-05T04:51:48.307Z,17.73
2018-10-05T04:54:16.606Z,18.13
2018-10-05T04:56:44.826Z,18.37
2018-10-05T04:59:13.036Z,20.30
2018-10-05T05:01:41.265Z,18.37
2018-10-05T05:04:09.565Z,17.10
2018-10-05T05:06:37.837Z,18.57
2018-10-05T05:09:07.025Z,18.27
2018-10-05T05:11:35.425Z,20.37
2018-10-05T05:14:03.664Z,19.93
2018-10-05T05:16:31.977Z,18.97
2018-10-05T05:19:00.197Z,16.17
2018-10-05T05:21:28.512Z,15.43
2018-10-05T05:23:57.065Z,18.90
2018-10-05T05:26:25.804Z,16.73
2018-10-05T05:28:53.966Z,19.40
2018-10-05T05:31:22.493Z,16.40
2018-10-05T05:33:51.057Z,17.37
2018-10-05T05:36:19.305Z,17.83
2018-10-05T05:38:47.705Z,19.00
2018-10-05T05:41:16.005Z,17.23
2018-10-05T05:43:44.216Z,17.13
2018-10-05T05:46:12.477Z,16.83
2018-10-05T05:48:40.798Z,18.00
2018-10-05T05:51:09.246Z,18.80
2018-10-05T05:53:37.637Z,19.17
2018-10-05T05:56:12.445Z,16.80
2018-10-05T05:58:40.705Z,14.10
2018-10-05T06:01:09.081Z,15.57
2018-10-05T06:03:38.467Z,12.60
2018-10-05T06:06:06.825Z,12.50
2018-10-05T06:08:35.085Z,13.57
2018-10-05T06:11:03.705Z,11.20
2018-10-05T06:13:31.953Z,11.27
2018-10-05T06:16:00.451Z,12.47
2018-10-05T06:18:28.640Z,12.67
2018-10-05T06:20:56.887Z,13.60
2018-10-05T06:23:25.121Z,11.10
2018-10-05T06:25:53.299Z,11.27
2018-10-05T06:28:21.460Z,11.07
2018-10-05T06:30:49.814Z,10.77
2018-10-05T06:33:18.057Z,10.87
2018-10-05T06:35:46.300Z,8.20
2018-10-05T06:38:14.595Z,9.00
2018-10-05T06:40:42.959Z,8.43
2018-10-05T06:43:11.240Z,8.60
2018-10-05T06:45:39.428Z,11.53
2018-10-05T06:48:07.612Z,9.80
2018-10-05T06:50:35.852Z,9.37
2018-10-05T06:53:04.057Z,9.80
2018-10-05T06:55:32.317Z,10.17
2018-10-05T06:58:00.597Z,8.47
2018-10-05T07:00:28.797Z,8.70
2018-10-05T07:02:57.149Z,10.10
2018-10-05T07:05:25.278Z,8.93
2018-10-05T07:07:53.556Z,8.27
2018-10-05T07:10:21.777Z,10.27
2018-10-05T07:12:49.984Z,13.10
2018-10-05T07:15:18.234Z,9.70
2018-10-05T07:17:46.476Z,8.10
2018-10-05T07:20:14.732Z,8.47
2018-10-05T07:22:42.959Z,10.23
2018-10-05T07:25:11.178Z,9.00
2018-10-05T07:27:39.666Z,8.33
2018-10-05T07:30:08.469Z,9.50
2018-10-05T07:32:36.648Z,8.13
2018-10-05T07:35:04.892Z,10.27
2018-10-05T07:37:33.149Z,8.33
2018-10-05T07:40:01.411Z,10.90
2018-10-05T07:42:29.889Z,8.97
2018-10-05T07:44:58.228Z,8.23
2018-10-05T07:47:26.488Z,9.00
2018-10-05T07:49:54.728Z,7.40
2018-10-05T07:52:23.029Z,7.70
2018-10-05T07:54:51.408Z,7.60
2018-10-05T07:57:19.814Z,8.33
2018-10-05T07:59:48.128Z,10.23
2018-10-05T08:02:16.428Z,7.30
2018-10-05T08:04:44.660Z,7.67
2018-10-05T08:07:12.928Z,8.60
2018-10-05T08:09:42.723Z,8.87
2018-10-05T08:12:11.076Z,8.57
2018-10-05T08:14:39.342Z,7.73
2018-10-05T08:17:07.695Z,7.10
2018-10-05T08:19:35.887Z,10.70
2018-10-05T08:22:04.152Z,8.97
2018-10-05T08:24:32.365Z,10.13
2018-10-05T08:27:00.799Z,7.60
2018-10-05T08:29:29.065Z,7.87
2018-10-05T08:31:57.552Z,11.73
2018-10-05T08:34:25.906Z,8.13
2018-10-05T08:36:54.152Z,8.93
2018-10-05T08:39:22.414Z,8.27
2018-10-05T08:41:50.751Z,9.70
2018-10-05T08:44:18.879Z,9.53
2018-10-05T08:46:47.081Z,9.50
2018-10-05T08:49:15.275Z,11.00
2018-10-05T08:51:43.547Z,14.60
2018-10-05T08:54:11.834Z,16.37
2018-10-05T08:56:40.034Z,10.13
2018-10-05T08:59:08.321Z,8.97
2018-10-05T09:01:36.512Z,10.57
2018-10-05T09:04:04.792Z,9.40
2018-10-05T09:06:32.933Z,13.23
2018-10-05T09:09:01.304Z,8.77
2018-10-05T09:11:29.955Z,10.87
2018-10-05T09:13:58.420Z,11.70
2018-10-05T09:16:26.604Z,10.87
2018-10-05T09:18:54.919Z,10.53
2018-10-05T09:21:23.037Z,9.00
2018-10-05T09:23:51.336Z,10.07
2018-10-05T09:26:19.604Z,10.60
2018-10-05T09:28:47.936Z,10.67
2018-10-05T09:31:16.176Z,13.57
2018-10-05T09:33:44.436Z,8.80
2018-10-05T09:36:12.756Z,14.00
2018-10-05T09:38:41.076Z,9.90
2018-10-05T09:41:09.284Z,9.40
2018-10-05T09:43:37.617Z,6.87
2018-10-05T09:46:05.936Z,10.40
2018-10-05T09:48:34.184Z,8.17
2018-10-05T09:51:02.356Z,9.20
2018-10-05T09:53:30.617Z,7.83
2018-10-05T09:55:58.876Z,7.87
2018-10-05T09:58:27.136Z,8.47
2018-10-05T10:01:00.776Z,10.20
2018-10-05T10:03:31.397Z,9.43
2018-10-05T10:05:59.916Z,6.20
2018-10-05T10:08:28.540Z,7.00
2018-10-05T10:10:57.056Z,7.40
2018-10-05T10:13:25.681Z,9.23
2018-10-05T10:15:53.953Z,7.87
2018-10-05T10:18:22.221Z,9.00
2018-10-05T10:20:50.574Z,10.33
2018-10-05T10:23:18.834Z,7.17
2018-10-05T10:25:47.154Z,5.30
2018-10-05T10:28:15.861Z,7.33
2018-10-05T10:30:44.154Z,8.40
2018-10-05T10:33:12.494Z,7.33
2018-10-05T10:35:40.756Z,8.50
2018-10-05T10:38:09.055Z,7.43
2018-10-05T10:40:37.314Z,8.77
2018-10-05T10:43:05.863Z,8.23
2018-10-05T10:45:34.166Z,8.10
2018-10-05T10:48:02.465Z,6.97
2018-10-05T10:50:30.765Z,8.33
2018-10-05T10:52:58.959Z,9.03
2018-10-05T10:55:27.269Z,8.77
2018-10-05T10:57:55.488Z,12.80
2018-10-05T11:00:23.831Z,10.43
2018-10-05T11:02:52.119Z,9.30
2018-10-05T11:05:20.460Z,8.47
2018-10-05T11:07:48.787Z,9.33
2018-10-05T11:10:17.029Z,8.60
2018-10-05T11:12:45.269Z,6.03
2018-10-05T11:15:13.570Z,5.33
2018-10-05T11:17:41.752Z,6.27
2018-10-05T11:20:10.129Z,5.73
2018-10-05T11:22:38.268Z,8.37
2018-10-05T11:25:06.509Z,11.03
2018-10-05T11:27:34.709Z,9.30
2018-10-05T11:30:03.029Z,8.00
2018-10-05T11:32:31.268Z,9.83
2018-10-05T11:34:59.532Z,8.03
2018-10-05T11:37:27.789Z,6.47
2018-10-05T11:39:56.041Z,9.63
2018-10-05T11:49:43.285Z,9.23
2018-10-05T11:52:15.185Z,7.20
2018-10-05T12:00:35.657Z,7.17
2018-10-05T13:37:33.400Z,4.40
2018-10-05T13:40:02.003Z,6.90
2018-10-05T13:42:30.740Z,3.83
2018-10-05T13:44:59.030Z,3.50
2018-10-05T13:47:27.799Z,3.50
2018-10-05T13:49:56.019Z,5.80
2018-10-05T13:52:30.621Z,3.03
2018-10-05T13:55:02.341Z,4.10
2018-10-05T13:57:50.081Z,3.07
2018-10-05T14:00:20.861Z,2.80
2018-10-05T14:02:49.243Z,4.70
2018-10-05T14:05:21.222Z,5.97
2018-10-05T14:14:55.569Z,4.03
2018-10-05T14:17:24.090Z,5.83
2018-10-05T14:19:52.430Z,5.63
2018-10-05T14:22:22.809Z,5.93
2018-10-05T14:24:51.111Z,6.27
2018-10-05T14:27:24.629Z,4.73
2018-10-05T14:29:54.829Z,4.37
2018-10-05T14:32:32.817Z,5.00
2018-10-05T14:35:12.369Z,4.43
2018-10-05T14:37:40.838Z,3.40
2018-10-05T14:40:09.097Z,5.40
2018-10-05T14:42:37.378Z,3.90
2018-10-05T14:45:06.078Z,5.10
2018-10-05T14:47:34.349Z,6.13
2018-10-05T14:50:02.537Z,4.60
2018-10-05T14:52:30.718Z,3.77
2018-10-05T14:54:58.877Z,4.57
2018-10-05T14:57:27.145Z,4.43
2018-10-05T14:59:55.478Z,4.53
2018-10-05T15:02:23.720Z,4.20
2018-10-05T15:04:52.039Z,4.40
2018-10-05T15:07:20.263Z,10.23
2018-10-05T15:09:48.454Z,6.70
2018-10-05T15:12:16.680Z,5.37
2018-10-05T15:14:45.007Z,3.23
2018-10-05T15:17:13.264Z,4.37
2018-10-05T15:19:41.559Z,6.73
2018-10-05T15:22:09.851Z,5.00
2018-10-05T15:24:38.104Z,4.57
2018-10-05T15:27:06.992Z,6.57
2018-10-05T15:29:35.196Z,5.93
2018-10-05T15:32:03.611Z,5.50
2018-10-05T15:34:31.871Z,5.40
2018-10-05T15:37:00.184Z,5.27
2018-10-05T15:39:28.483Z,4.83
2018-10-05T15:41:56.803Z,4.13
2018-10-05T15:44:25.159Z,4.93
2018-10-05T15:47:02.039Z,4.80
2018-10-05T15:49:31.007Z,6.23
2018-10-05T15:51:59.759Z,7.07
2018-10-05T15:54:27.968Z,3.90
2018-10-05T15:56:56.259Z,5.73
2018-10-05T15:59:24.988Z,3.30
2018-10-05T16:01:53.179Z,4.40
2018-10-05T16:04:21.447Z,3.57
2018-10-05T16:06:52.448Z,4.33
2018-10-05T16:09:20.699Z,3.60
2018-10-05T16:11:49.048Z,4.77
2018-10-05T16:14:17.086Z,3.80
2018-10-05T16:16:45.075Z,3.40
2018-10-05T16:19:13.120Z,2.70
2018-10-05T16:21:41.163Z,4.20
2018-10-05T16:24:10.923Z,2.27
2018-10-05T16:26:39.175Z,6.00
2018-10-05T16:29:07.215Z,5.17
2018-10-05T16:31:35.243Z,7.67
2018-10-05T16:34:03.276Z,5.07
2018-10-05T16:36:31.283Z,4.93
2018-10-05T16:38:59.275Z,4.73
2018-10-05T16:41:27.429Z,4.73
2018-10-05T16:43:55.781Z,5.53
2018-10-05T16:46:23.948Z,4.00
2018-10-05T16:48:52.149Z,3.10
2018-10-05T16:51:20.381Z,5.03
2018-10-05T16:53:48.561Z,4.77
2018-10-05T16:56:16.810Z,7.83
2018-10-05T16:58:45.009Z,4.00
2018-10-05T17:01:13.368Z,4.00
2018-10-05T17:03:41.436Z,6.63
2018-10-05T17:06:09.413Z,6.37
2018-10-05T17:08:40.662Z,3.67
2018-10-05T17:11:08.629Z,6.60
2018-10-05T17:13:36.622Z,5.73
2018-10-05T17:16:04.693Z,4.27
2018-10-05T17:18:32.776Z,3.23
2018-10-05T17:21:00.889Z,2.73
2018-10-05T17:23:29.172Z,5.93
2018-10-05T17:25:57.363Z,4.10
2018-10-05T17:28:25.414Z,5.90
2018-10-05T17:30:53.404Z,5.20
2018-10-05T17:33:21.534Z,3.87
2018-10-05T17:35:49.652Z,6.13
2018-10-05T17:38:17.738Z,4.27
2018-10-05T17:40:47.708Z,3.40
2018-10-05T17:43:15.953Z,4.00
2018-10-05T17:45:44.036Z,3.87
2018-10-05T17:48:15.138Z,4.20
2018-10-05T17:50:43.188Z,6.87
2018-10-05T17:53:11.278Z,4.93
2018-10-05T17:55:39.599Z,2.73
2018-10-05T17:58:07.780Z,3.93
2018-10-05T18:00:42.469Z,5.47
2018-10-05T18:03:10.568Z,3.70
2018-10-05T18:05:38.624Z,2.60
2018-10-05T18:08:06.707Z,5.70
2018-10-05T18:10:34.694Z,3.60
2018-10-05T18:13:02.827Z,4.27
2018-10-05T18:15:31.023Z,5.67
2018-10-05T18:17:59.399Z,3.33
2018-10-05T18:20:27.564Z,3.27
2018-10-05T18:22:55.694Z,3.03
2018-10-05T18:25:23.967Z,3.97
2018-10-05T18:27:52.267Z,4.80
2018-10-05T18:30:20.360Z,5.70
2018-10-05T18:32:48.413Z,4.83
2018-10-05T18:35:16.692Z,3.97
2018-10-05T18:37:44.780Z,3.77
2018-10-05T18:40:13.362Z,3.97
2018-10-05T18:42:41.606Z,3.80
2018-10-05T18:45:10.091Z,5.17
2018-10-05T18:47:38.860Z,3.23
2018-10-05T18:50:07.551Z,3.73
2018-10-05T18:52:35.893Z,3.13
2018-10-05T18:55:04.351Z,4.80
2018-10-05T18:57:32.547Z,5.20
2018-10-05T19:00:00.731Z,4.90
2018-10-05T19:02:28.947Z,3.97
2018-10-05T19:04:57.247Z,3.93
2018-10-05T19:07:25.374Z,3.97
2018-10-05T19:09:53.493Z,3.30
2018-10-05T19:12:21.646Z,5.60
2018-10-05T19:14:49.858Z,5.90
2018-10-05T19:17:17.966Z,3.77
2018-10-05T19:19:46.074Z,4.60
2018-10-05T19:22:14.125Z,4.60
2018-10-05T19:24:42.214Z,6.43
2018-10-05T19:27:10.446Z,6.47
2018-10-05T19:29:38.655Z,3.13
2018-10-05T19:32:06.713Z,3.90
2018-10-05T19:34:34.854Z,5.57
2018-10-05T19:37:02.874Z,6.70
2018-10-05T19:39:31.146Z,5.00
2018-10-05T19:41:59.297Z,4.20
2018-10-05T19:44:27.420Z,5.40
2018-10-05T19:46:55.499Z,7.30
2018-10-05T19:49:24.300Z,6.37
2018-10-05T19:51:52.354Z,4.80
2018-10-05T19:54:20.417Z,5.10
2018-10-05T20:14:13.196Z,4.67
2018-10-05T20:40:32.828Z,5.70
2018-10-05T22:03:38.373Z,5.47
2018-10-05T22:16:02.229Z,3.77
2018-10-05T22:22:43.615Z,5.43
2018-10-05T22:25:17.904Z,5.60
2018-10-05T22:27:46.745Z,3.93
2018-10-05T22:30:15.056Z,3.97
2018-10-05T22:33:39.560Z,7.13
2018-10-05T23:25:27.609Z,5.73
2018-10-05T23:30:57.869Z,4.27
2018-10-05T23:33:26.141Z,4.30
2018-10-05T23:35:54.537Z,6.93
2018-10-05T23:38:22.768Z,6.57
2018-10-05T23:40:51.009Z,4.83
2018-10-05T23:43:19.222Z,7.40
2018-10-05T23:45:47.521Z,8.43
2018-10-05T23:48:15.898Z,4.73
2018-10-05T23:50:44.153Z,5.57
2018-10-05T23:53:13.839Z,6.03
2018-10-05T23:55:42.048Z,5.17
2018-10-05T23:58:10.258Z,5.90
